sensor_id;sensor_type;location;lat;lon;timestamp;temperature;humidity
37324;DHT22;23205;49.986;18.950;2022-10-16T00:04:35;13.60;99.90
37324;DHT22;23205;49.986;18.950;2022-10-16T00:09:36;13.50;99.90
37324;DHT22;23205;49.986;18.950;2022-10-16T00:14:37;13.50;99.90
37324;DHT22;23205;49.986;18.950;2022-10-16T00:19:37;13.50;99.90
37324;DHT22;23205;49.986;18.950;2022-10-16T00:24:38;13.40;99.90
37324;DHT22;23205;49.986;18.950;2022-10-16T00:29:39;13.50;99.90
37324;DHT22;23205;49.986;18.950;2022-10-16T00:34:39;13.50;99.90
37324;DHT22;23205;49.986;18.950;2022-10-16T00:39:41;13.40;99.90
37324;DHT22;23205;49.986;18.950;2022-10-16T00:49:45;13.40;99.90
37324;DHT22;23205;49.986;18.950;2022-10-16T00:54:47;13.50;99.90
37324;DHT22;23205;49.986;18.950;2022-10-16T00:59:49;13.60;99.90
37324;DHT22;23205;49.986;18.950;2022-10-16T01:04:52;13.50;99.90
37324;DHT22;23205;49.986;18.950;2022-10-16T01:15:49;13.30;99.90
37324;DHT22;23205;49.986;18.950;2022-10-16T01:26:26;13.40;99.90
37324;DHT22;23205;49.986;18.950;2022-10-16T01:31:34;13.40;99.90
37324;DHT22;23205;49.986;18.950;2022-10-16T01:36:39;13.30;99.90
37324;DHT22;23205;49.986;18.950;2022-10-16T01:41:58;13.10;99.90
37324;DHT22;23205;49.986;18.950;2022-10-16T01:47:01;13.10;99.90
37324;DHT22;23205;49.986;18.950;2022-10-16T01:52:07;13.00;99.90
37324;DHT22;23205;49.986;18.950;2022-10-16T01:57:10;13.00;99.90
37324;DHT22;23205;49.986;18.950;2022-10-16T02:02:12;12.90;99.90
37324;DHT22;23205;49.986;18.950;2022-10-16T02:07:15;13.00;99.90
37324;DHT22;23205;49.986;18.950;2022-10-16T02:12:26;12.90;99.90
37324;DHT22;23205;49.986;18.950;2022-10-16T02:17:28;12.80;99.90
37324;DHT22;23205;49.986;18.950;2022-10-16T02:22:34;12.60;99.90
37324;DHT22;23205;49.986;18.950;2022-10-16T02:28:00;12.60;99.90
37324;DHT22;23205;49.986;18.950;2022-10-16T02:33:06;12.40;99.90
37324;DHT22;23205;49.986;18.950;2022-10-16T02:38:08;12.30;99.90
37324;DHT22;23205;49.986;18.950;2022-10-16T02:43:09;13.10;99.90
37324;DHT22;23205;49.986;18.950;2022-10-16T02:48:11;12.30;99.90
37324;DHT22;23205;49.986;18.950;2022-10-16T02:53:11;12.30;99.90
37324;DHT22;23205;49.986;18.950;2022-10-16T02:58:12;12.20;99.90
37324;DHT22;23205;49.986;18.950;2022-10-16T03:03:13;12.40;99.90
37324;DHT22;23205;49.986;18.950;2022-10-16T03:08:14;12.40;99.90
37324;DHT22;23205;49.986;18.950;2022-10-16T03:13:15;12.30;99.90
37324;DHT22;23205;49.986;18.950;2022-10-16T03:18:16;12.40;99.90
37324;DHT22;23205;49.986;18.950;2022-10-16T03:23:16;12.20;99.90
37324;DHT22;23205;49.986;18.950;2022-10-16T03:28:17;12.20;99.90
37324;DHT22;23205;49.986;18.950;2022-10-16T03:33:18;12.10;99.90
37324;DHT22;23205;49.986;18.950;2022-10-16T03:38:19;12.00;99.90
37324;DHT22;23205;49.986;18.950;2022-10-16T03:43:19;11.90;99.90
37324;DHT22;23205;49.986;18.950;2022-10-16T03:48:20;11.80;99.90
37324;DHT22;23205;49.986;18.950;2022-10-16T03:53:21;12.00;99.90
37324;DHT22;23205;49.986;18.950;2022-10-16T03:58:22;11.80;99.90
37324;DHT22;23205;49.986;18.950;2022-10-16T04:03:22;11.90;99.90
37324;DHT22;23205;49.986;18.950;2022-10-16T04:08:23;12.00;99.90
37324;DHT22;23205;49.986;18.950;2022-10-16T04:13:24;12.60;99.90
37324;DHT22;23205;49.986;18.950;2022-10-16T04:18:25;11.90;99.90
37324;DHT22;23205;49.986;18.950;2022-10-16T04:23:27;11.80;99.90
37324;DHT22;23205;49.986;18.950;2022-10-16T04:28:28;12.00;99.90
37324;DHT22;23205;49.986;18.950;2022-10-16T04:33:29;13.00;99.90
37324;DHT22;23205;49.986;18.950;2022-10-16T04:38:30;12.00;99.90
37324;DHT22;23205;49.986;18.950;2022-10-16T04:43:31;11.90;99.90
37324;DHT22;23205;49.986;18.950;2022-10-16T04:48:32;11.80;99.90
37324;DHT22;23205;49.986;18.950;2022-10-16T04:53:32;11.70;99.90
37324;DHT22;23205;49.986;18.950;2022-10-16T04:58:34;11.20;99.90
37324;DHT22;23205;49.986;18.950;2022-10-16T05:03:35;11.10;99.90
37324;DHT22;23205;49.986;18.950;2022-10-16T05:08:36;11.20;99.90
37324;DHT22;23205;49.986;18.950;2022-10-16T05:13:37;11.00;99.90
37324;DHT22;23205;49.986;18.950;2022-10-16T05:18:37;11.20;99.90
37324;DHT22;23205;49.986;18.950;2022-10-16T05:23:38;11.20;99.90
37324;DHT22;23205;49.986;18.950;2022-10-16T05:28:39;11.20;99.90
37324;DHT22;23205;49.986;18.950;2022-10-16T05:33:39;11.20;99.90
37324;DHT22;23205;49.986;18.950;2022-10-16T05:38:40;11.00;99.90
37324;DHT22;23205;49.986;18.950;2022-10-16T05:43:41;11.20;99.90
37324;DHT22;23205;49.986;18.950;2022-10-16T05:48:42;11.10;99.90
37324;DHT22;23205;49.986;18.950;2022-10-16T05:53:42;11.40;99.90
37324;DHT22;23205;49.986;18.950;2022-10-16T05:58:45;11.90;99.90
37324;DHT22;23205;49.986;18.950;2022-10-16T06:03:46;12.90;99.90
37324;DHT22;23205;49.986;18.950;2022-10-16T06:08:48;12.30;99.90
37324;DHT22;23205;49.986;18.950;2022-10-16T06:13:50;13.10;99.90
37324;DHT22;23205;49.986;18.950;2022-10-16T06:18:52;12.40;99.90
37324;DHT22;23205;49.986;18.950;2022-10-16T06:23:55;13.10;99.90
37324;DHT22;23205;49.986;18.950;2022-10-16T06:28:57;13.00;99.90
37324;DHT22;23205;49.986;18.950;2022-10-16T06:33:58;13.50;99.90
37324;DHT22;23205;49.986;18.950;2022-10-16T06:38:59;13.80;99.90
37324;DHT22;23205;49.986;18.950;2022-10-16T06:44:00;14.20;99.90
37324;DHT22;23205;49.986;18.950;2022-10-16T06:49:01;14.70;99.90
37324;DHT22;23205;49.986;18.950;2022-10-16T06:54:02;15.10;99.90
37324;DHT22;23205;49.986;18.950;2022-10-16T06:59:03;15.60;99.90
37324;DHT22;23205;49.986;18.950;2022-10-16T07:04:04;15.90;99.90
37324;DHT22;23205;49.986;18.950;2022-10-16T07:09:08;16.40;99.90
37324;DHT22;23205;49.986;18.950;2022-10-16T07:14:19;16.60;99.90
37324;DHT22;23205;49.986;18.950;2022-10-16T07:19:20;16.90;99.90
37324;DHT22;23205;49.986;18.950;2022-10-16T07:24:21;17.10;99.90
37324;DHT22;23205;49.986;18.950;2022-10-16T07:29:22;17.10;99.90
37324;DHT22;23205;49.986;18.950;2022-10-16T07:34:22;17.20;99.90
37324;DHT22;23205;49.986;18.950;2022-10-16T07:39:23;17.10;99.90
37324;DHT22;23205;49.986;18.950;2022-10-16T07:44:24;17.20;99.90
37324;DHT22;23205;49.986;18.950;2022-10-16T07:49:25;17.50;99.90
37324;DHT22;23205;49.986;18.950;2022-10-16T07:54:28;17.70;99.90
37324;DHT22;23205;49.986;18.950;2022-10-16T07:59:29;17.80;99.90
37324;DHT22;23205;49.986;18.950;2022-10-16T08:04:29;17.80;99.90
37324;DHT22;23205;49.986;18.950;2022-10-16T08:09:30;18.20;99.90
37324;DHT22;23205;49.986;18.950;2022-10-16T08:14:31;18.30;99.90
37324;DHT22;23205;49.986;18.950;2022-10-16T08:19:32;18.70;99.90
37324;DHT22;23205;49.986;18.950;2022-10-16T08:24:34;18.90;99.20
37324;DHT22;23205;49.986;18.950;2022-10-16T08:29:37;18.80;99.00
37324;DHT22;23205;49.986;18.950;2022-10-16T08:34:38;18.90;98.40
37324;DHT22;23205;49.986;18.950;2022-10-16T08:39:39;18.90;97.40
37324;DHT22;23205;49.986;18.950;2022-10-16T08:50:02;19.60;96.90
37324;DHT22;23205;49.986;18.950;2022-10-16T08:55:04;19.80;95.30
37324;DHT22;23205;49.986;18.950;2022-10-16T09:00:12;20.10;94.50
37324;DHT22;23205;49.986;18.950;2022-10-16T09:10:58;20.50;92.90
37324;DHT22;23205;49.986;18.950;2022-10-16T09:16:24;20.80;92.70
37324;DHT22;23205;49.986;18.950;2022-10-16T09:21:31;21.30;91.50
37324;DHT22;23205;49.986;18.950;2022-10-16T09:26:32;21.10;91.20
37324;DHT22;23205;49.986;18.950;2022-10-16T09:31:36;20.60;92.10
37324;DHT22;23205;49.986;18.950;2022-10-16T09:36:43;20.50;91.70
37324;DHT22;23205;49.986;18.950;2022-10-16T09:41:45;21.00;91.50
37324;DHT22;23205;49.986;18.950;2022-10-16T09:46:46;21.20;91.00
37324;DHT22;23205;49.986;18.950;2022-10-16T09:51:46;21.30;90.70
37324;DHT22;23205;49.986;18.950;2022-10-16T09:56:49;21.00;90.80
37324;DHT22;23205;49.986;18.950;2022-10-16T10:01:55;21.00;91.40
37324;DHT22;23205;49.986;18.950;2022-10-16T10:06:57;21.70;89.70
37324;DHT22;23205;49.986;18.950;2022-10-16T10:12:03;22.30;89.00
37324;DHT22;23205;49.986;18.950;2022-10-16T10:17:27;22.70;86.90
37324;DHT22;23205;49.986;18.950;2022-10-16T10:22:30;22.60;86.50
37324;DHT22;23205;49.986;18.950;2022-10-16T10:43:52;21.80;88.70
37324;DHT22;23205;49.986;18.950;2022-10-16T10:54:24;21.30;89.30
37324;DHT22;23205;49.986;18.950;2022-10-16T11:10:15;20.60;91.10
37324;DHT22;23205;49.986;18.950;2022-10-16T11:15:21;20.60;91.40
37324;DHT22;23205;49.986;18.950;2022-10-16T11:20:53;20.80;91.30
37324;DHT22;23205;49.986;18.950;2022-10-16T11:25:51;20.50;91.40
37324;DHT22;23205;49.986;18.950;2022-10-16T11:31:14;20.80;91.20
37324;DHT22;23205;49.986;18.950;2022-10-16T11:36:17;20.70;91.20
37324;DHT22;23205;49.986;18.950;2022-10-16T11:46:27;20.60;91.70
37324;DHT22;23205;49.986;18.950;2022-10-16T11:51:40;20.60;91.70
37324;DHT22;23205;49.986;18.950;2022-10-16T11:56:43;20.70;91.70
37324;DHT22;23205;49.986;18.950;2022-10-16T12:01:58;20.80;92.00
37324;DHT22;23205;49.986;18.950;2022-10-16T12:07:13;20.80;92.30
37324;DHT22;23205;49.986;18.950;2022-10-16T12:12:25;20.50;92.20
37324;DHT22;23205;49.986;18.950;2022-10-16T12:17:27;20.50;92.60
37324;DHT22;23205;49.986;18.950;2022-10-16T12:22:35;20.90;91.90
37324;DHT22;23205;49.986;18.950;2022-10-16T12:27:36;21.10;91.50
37324;DHT22;23205;49.986;18.950;2022-10-16T12:32:39;21.10;91.40
37324;DHT22;23205;49.986;18.950;2022-10-16T12:37:40;21.40;91.20
37324;DHT22;23205;49.986;18.950;2022-10-16T12:42:41;21.10;91.20
37324;DHT22;23205;49.986;18.950;2022-10-16T12:47:53;20.90;92.00
37324;DHT22;23205;49.986;18.950;2022-10-16T12:52:54;21.60;91.60
37324;DHT22;23205;49.986;18.950;2022-10-16T13:08:58;21.30;91.50
37324;DHT22;23205;49.986;18.950;2022-10-16T13:14:07;21.20;92.00
37324;DHT22;23205;49.986;18.950;2022-10-16T13:24:24;20.50;92.40
37324;DHT22;23205;49.986;18.950;2022-10-16T13:29:33;20.30;92.50
37324;DHT22;23205;49.986;18.950;2022-10-16T13:34:44;20.30;92.80
37324;DHT22;23205;49.986;18.950;2022-10-16T13:39:45;20.40;92.80
37324;DHT22;23205;49.986;18.950;2022-10-16T13:44:49;20.30;93.50
37324;DHT22;23205;49.986;18.950;2022-10-16T13:50:05;20.30;93.40
37324;DHT22;23205;49.986;18.950;2022-10-16T13:55:15;21.30;92.80
37324;DHT22;23205;49.986;18.950;2022-10-16T14:00:22;22.20;91.40
37324;DHT22;23205;49.986;18.950;2022-10-16T14:05:24;23.80;87.50
37324;DHT22;23205;49.986;18.950;2022-10-16T14:10:30;24.40;84.70
37324;DHT22;23205;49.986;18.950;2022-10-16T14:15:33;24.70;83.60
37324;DHT22;23205;49.986;18.950;2022-10-16T14:20:35;24.90;82.40
37324;DHT22;23205;49.986;18.950;2022-10-16T14:25:35;25.60;80.60
37324;DHT22;23205;49.986;18.950;2022-10-16T14:30:36;24.90;82.50
37324;DHT22;23205;49.986;18.950;2022-10-16T14:35:39;24.70;82.50
37324;DHT22;23205;49.986;18.950;2022-10-16T14:40:47;23.90;84.40
37324;DHT22;23205;49.986;18.950;2022-10-16T14:45:56;23.50;85.60
37324;DHT22;23205;49.986;18.950;2022-10-16T14:51:01;23.30;86.00
37324;DHT22;23205;49.986;18.950;2022-10-16T14:56:19;22.70;87.20
37324;DHT22;23205;49.986;18.950;2022-10-16T15:01:20;21.70;90.00
37324;DHT22;23205;49.986;18.950;2022-10-16T15:06:25;21.10;91.00
37324;DHT22;23205;49.986;18.950;2022-10-16T15:11:26;20.50;92.00
37324;DHT22;23205;49.986;18.950;2022-10-16T15:16:27;20.30;92.60
37324;DHT22;23205;49.986;18.950;2022-10-16T15:21:29;20.20;93.00
37324;DHT22;23205;49.986;18.950;2022-10-16T15:26:30;19.80;93.90
37324;DHT22;23205;49.986;18.950;2022-10-16T15:31:32;19.60;94.30
37324;DHT22;23205;49.986;18.950;2022-10-16T15:36:37;19.40;94.90
37324;DHT22;23205;49.986;18.950;2022-10-16T15:41:38;19.40;95.50
37324;DHT22;23205;49.986;18.950;2022-10-16T15:46:39;19.10;96.00
37324;DHT22;23205;49.986;18.950;2022-10-16T15:51:41;18.90;96.70
37324;DHT22;23205;49.986;18.950;2022-10-16T15:56:42;18.80;97.30
37324;DHT22;23205;49.986;18.950;2022-10-16T16:01:42;18.70;97.90
37324;DHT22;23205;49.986;18.950;2022-10-16T16:06:43;18.40;98.80
37324;DHT22;23205;49.986;18.950;2022-10-16T16:11:46;18.30;99.10
37324;DHT22;23205;49.986;18.950;2022-10-16T16:16:48;18.20;99.60
37324;DHT22;23205;49.986;18.950;2022-10-16T16:21:49;18.10;99.90
37324;DHT22;23205;49.986;18.950;2022-10-16T16:26:50;18.10;99.90
37324;DHT22;23205;49.986;18.950;2022-10-16T16:31:51;17.90;99.90
37324;DHT22;23205;49.986;18.950;2022-10-16T16:36:57;17.90;99.90
37324;DHT22;23205;49.986;18.950;2022-10-16T16:41:58;17.70;99.90
37324;DHT22;23205;49.986;18.950;2022-10-16T16:46:59;17.50;99.90
37324;DHT22;23205;49.986;18.950;2022-10-16T16:51:59;17.30;99.90
37324;DHT22;23205;49.986;18.950;2022-10-16T16:57:00;17.10;99.90
37324;DHT22;23205;49.986;18.950;2022-10-16T17:02:02;17.10;99.90
37324;DHT22;23205;49.986;18.950;2022-10-16T17:07:03;16.90;99.90
37324;DHT22;23205;49.986;18.950;2022-10-16T17:12:04;16.70;99.90
37324;DHT22;23205;49.986;18.950;2022-10-16T17:17:04;16.60;99.90
37324;DHT22;23205;49.986;18.950;2022-10-16T17:22:07;16.40;99.90
37324;DHT22;23205;49.986;18.950;2022-10-16T17:27:08;16.40;99.90
37324;DHT22;23205;49.986;18.950;2022-10-16T17:32:09;16.40;99.90
37324;DHT22;23205;49.986;18.950;2022-10-16T17:37:10;16.40;99.90
37324;DHT22;23205;49.986;18.950;2022-10-16T17:42:11;16.30;99.90
37324;DHT22;23205;49.986;18.950;2022-10-16T17:47:12;16.20;99.90
37324;DHT22;23205;49.986;18.950;2022-10-16T17:52:12;16.20;99.90
37324;DHT22;23205;49.986;18.950;2022-10-16T17:57:13;16.20;99.90
37324;DHT22;23205;49.986;18.950;2022-10-16T18:02:14;16.10;99.90
37324;DHT22;23205;49.986;18.950;2022-10-16T18:07:16;16.10;99.90
37324;DHT22;23205;49.986;18.950;2022-10-16T18:12:17;15.90;99.90
37324;DHT22;23205;49.986;18.950;2022-10-16T18:17:18;15.60;99.90
37324;DHT22;23205;49.986;18.950;2022-10-16T18:22:18;15.60;99.90
37324;DHT22;23205;49.986;18.950;2022-10-16T18:27:19;15.60;99.90
37324;DHT22;23205;49.986;18.950;2022-10-16T18:32:20;15.40;99.90
37324;DHT22;23205;49.986;18.950;2022-10-16T18:37:21;15.40;99.90
37324;DHT22;23205;49.986;18.950;2022-10-16T18:42:22;15.40;99.90
37324;DHT22;23205;49.986;18.950;2022-10-16T18:47:23;15.50;99.90
37324;DHT22;23205;49.986;18.950;2022-10-16T18:52:24;15.40;99.90
37324;DHT22;23205;49.986;18.950;2022-10-16T18:57:27;15.20;99.90
37324;DHT22;23205;49.986;18.950;2022-10-16T19:02:29;15.10;99.90
37324;DHT22;23205;49.986;18.950;2022-10-16T19:07:30;14.90;99.90
37324;DHT22;23205;49.986;18.950;2022-10-16T19:12:30;14.80;99.90
37324;DHT22;23205;49.986;18.950;2022-10-16T19:17:31;14.60;99.90
37324;DHT22;23205;49.986;18.950;2022-10-16T19:22:32;14.70;99.90
37324;DHT22;23205;49.986;18.950;2022-10-16T19:27:54;15.10;99.90
37324;DHT22;23205;49.986;18.950;2022-10-16T19:32:54;15.10;99.90
37324;DHT22;23205;49.986;18.950;2022-10-16T19:37:55;15.00;99.90
37324;DHT22;23205;49.986;18.950;2022-10-16T19:42:56;14.90;99.90
37324;DHT22;23205;49.986;18.950;2022-10-16T19:47:56;14.90;99.90
37324;DHT22;23205;49.986;18.950;2022-10-16T19:52:57;15.10;99.90
37324;DHT22;23205;49.986;18.950;2022-10-16T19:57:58;15.10;99.90
37324;DHT22;23205;49.986;18.950;2022-10-16T20:02:59;15.10;99.90
37324;DHT22;23205;49.986;18.950;2022-10-16T20:08:01;15.00;99.90
37324;DHT22;23205;49.986;18.950;2022-10-16T20:13:02;15.00;99.90
37324;DHT22;23205;49.986;18.950;2022-10-16T20:18:02;15.00;99.90
37324;DHT22;23205;49.986;18.950;2022-10-16T20:23:03;15.00;99.90
37324;DHT22;23205;49.986;18.950;2022-10-16T20:28:05;15.00;99.90
37324;DHT22;23205;49.986;18.950;2022-10-16T20:33:06;14.90;99.90
37324;DHT22;23205;49.986;18.950;2022-10-16T20:38:08;14.70;99.90
37324;DHT22;23205;49.986;18.950;2022-10-16T20:43:14;14.40;99.90
37324;DHT22;23205;49.986;18.950;2022-10-16T20:48:15;14.00;99.90
37324;DHT22;23205;49.986;18.950;2022-10-16T20:53:16;14.00;99.90
37324;DHT22;23205;49.986;18.950;2022-10-16T20:58:17;14.10;99.90
37324;DHT22;23205;49.986;18.950;2022-10-16T21:03:18;14.20;99.90
37324;DHT22;23205;49.986;18.950;2022-10-16T21:08:19;14.10;99.90
37324;DHT22;23205;49.986;18.950;2022-10-16T21:13:20;13.90;99.90
37324;DHT22;23205;49.986;18.950;2022-10-16T21:18:20;13.80;99.90
37324;DHT22;23205;49.986;18.950;2022-10-16T21:23:21;13.70;99.90
37324;DHT22;23205;49.986;18.950;2022-10-16T21:28:22;13.80;99.90
37324;DHT22;23205;49.986;18.950;2022-10-16T21:33:23;13.60;99.90
37324;DHT22;23205;49.986;18.950;2022-10-16T21:38:24;13.40;99.90
37324;DHT22;23205;49.986;18.950;2022-10-16T21:43:25;13.30;99.90
37324;DHT22;23205;49.986;18.950;2022-10-16T21:48:26;13.50;99.90
37324;DHT22;23205;49.986;18.950;2022-10-16T21:53:27;13.60;99.90
37324;DHT22;23205;49.986;18.950;2022-10-16T21:58:30;13.50;99.90
37324;DHT22;23205;49.986;18.950;2022-10-16T22:03:31;13.30;99.90
37324;DHT22;23205;49.986;18.950;2022-10-16T22:08:32;13.20;99.90
37324;DHT22;23205;49.986;18.950;2022-10-16T22:13:33;13.00;99.90
37324;DHT22;23205;49.986;18.950;2022-10-16T22:18:36;12.80;99.90
37324;DHT22;23205;49.986;18.950;2022-10-16T22:23:37;12.70;99.90
37324;DHT22;23205;49.986;18.950;2022-10-16T22:28:39;13.00;99.90
37324;DHT22;23205;49.986;18.950;2022-10-16T22:33:40;12.70;99.90
37324;DHT22;23205;49.986;18.950;2022-10-16T22:38:41;12.70;99.90
37324;DHT22;23205;49.986;18.950;2022-10-16T22:43:46;12.50;99.90
37324;DHT22;23205;49.986;18.950;2022-10-16T22:48:48;12.40;99.90
37324;DHT22;23205;49.986;18.950;2022-10-16T22:53:48;12.60;99.90
37324;DHT22;23205;49.986;18.950;2022-10-16T22:58:49;12.40;99.90
37324;DHT22;23205;49.986;18.950;2022-10-16T23:03:50;12.60;99.90
37324;DHT22;23205;49.986;18.950;2022-10-16T23:08:57;12.30;99.90
37324;DHT22;23205;49.986;18.950;2022-10-16T23:13:58;12.50;99.90
37324;DHT22;23205;49.986;18.950;2022-10-16T23:18:58;12.50;99.90
37324;DHT22;23205;49.986;18.950;2022-10-16T23:23:59;12.40;99.90
37324;DHT22;23205;49.986;18.950;2022-10-16T23:29:00;12.30;99.90
37324;DHT22;23205;49.986;18.950;2022-10-16T23:34:01;12.20;99.90
37324;DHT22;23205;49.986;18.950;2022-10-16T23:39:02;12.10;99.90
37324;DHT22;23205;49.986;18.950;2022-10-16T23:44:03;12.00;99.90
37324;DHT22;23205;49.986;18.950;2022-10-16T23:49:04;11.90;99.90
37324;DHT22;23205;49.986;18.950;2022-10-16T23:54:04;12.60;99.90
37324;DHT22;23205;49.986;18.950;2022-10-16T23:59:05;11.80;99.90
